Time;durP1;ratioP1;P1;durP2;ratioP2;P2;SDS_P1;SDS_P2;PMS_P1;PMS_P2;Temp;Humidity;BMP_temperature;BMP_pressure;BME280_temperature;BME280_humidity;BME280_pressure;Samples;Min_cycle;Max_cycle;Signal;HPM_P1;HPM_P2
2022/01/20 00:00:51;;;;;;;1.10;1.10;;;5.20;99.90;;;;;;5009499;28;20225;-61
2022/01/20 00:03:24;;;;;;;1.17;1.17;;;5.20;99.90;;;;;;5010763;28;20256;-61
2022/01/20 00:06:49;;;;;;;1.30;1.30;;;5.20;99.90;;;;;;5010635;28;20245;-62
2022/01/20 00:09:19;;;;;;;1.00;1.00;;;5.20;99.90;;;;;;5013039;28;20688;-63
2022/01/20 00:28:40;;;;;;;1.30;1.30;;;5.10;99.90;;;;;;4951895;29;20195;-64
2022/01/20 00:31:25;;;;;;;1.00;1.00;;;5.00;99.90;;;;;;5004157;28;20233;-61
2022/01/20 00:33:56;;;;;;;1.30;1.30;;;5.00;99.90;;;;;;5014844;28;20248;-62
2022/01/20 00:39:07;;;;;;;1.10;1.10;;;4.90;99.90;;;;;;5014762;28;20212;-64
2022/01/20 00:41:34;;;;;;;1.13;1.13;;;4.90;99.90;;;;;;5024245;28;20225;-62
2022/01/20 00:44:02;;;;;;;1.10;1.10;;;4.90;99.90;;;;;;5022109;28;20237;-62
2022/01/20 00:46:29;;;;;;;1.00;1.00;;;4.90;99.90;;;;;;5023172;28;20373;-62
2022/01/20 00:48:56;;;;;;;1.13;1.13;;;5.00;99.90;;;;;;5022817;28;20284;-62
2022/01/20 00:51:24;;;;;;;1.20;1.20;;;4.90;99.90;;;;;;5018138;28;20257;-63
2022/01/20 00:53:51;;;;;;;1.27;1.27;;;4.90;99.90;;;;;;5014760;28;20197;-64
2022/01/20 00:56:18;;;;;;;1.10;1.10;;;4.90;99.90;;;;;;5015031;28;20620;-63
2022/01/20 00:58:45;;;;;;;1.03;1.03;;;5.00;99.90;;;;;;5015587;28;20201;-62
2022/01/20 01:01:13;;;;;;;1.00;1.00;;;5.00;99.90;;;;;;5014395;28;20252;-62
2022/01/20 01:03:40;;;;;;;1.10;1.10;;;5.00;99.90;;;;;;5014784;28;20284;-61
2022/01/20 01:06:18;;;;;;;1.10;1.10;;;5.00;99.90;;;;;;5014239;28;20202;-63
2022/01/20 01:08:45;;;;;;;0.90;0.90;;;5.00;99.90;;;;;;5014566;28;20246;-63
2022/01/20 01:11:11;;;;;;;1.17;1.17;;;5.00;99.90;;;;;;5014072;28;20724;-61
2022/01/20 01:13:38;;;;;;;1.00;1.00;;;5.00;99.90;;;;;;5015355;28;20293;-61
2022/01/20 01:16:09;;;;;;;1.07;1.07;;;5.00;99.90;;;;;;5014030;28;20201;-61
2022/01/20 01:21:31;;;;;;;1.20;1.20;;;4.90;99.90;;;;;;5013284;28;20259;-62
2022/01/20 01:23:58;;;;;;;1.20;1.20;;;4.90;99.90;;;;;;5012157;28;20208;-61
2022/01/20 01:26:27;;;;;;;1.00;1.00;;;4.80;99.90;;;;;;5013568;28;20212;-63
2022/01/20 01:28:56;;;;;;;1.03;1.03;;;4.80;99.90;;;;;;5019587;28;20206;-64
2022/01/20 01:34:13;;;;;;;0.80;0.80;;;4.70;99.90;;;;;;5030989;28;20228;-62
2022/01/20 01:37:03;;;;;;;0.97;0.97;;;4.70;99.90;;;;;;5033487;28;20224;-63
2022/01/20 01:39:30;;;;;;;1.07;1.07;;;4.70;99.90;;;;;;5033357;28;20201;-61
2022/01/20 01:41:58;;;;;;;1.00;1.00;;;4.70;99.90;;;;;;5032908;28;20234;-63
2022/01/20 01:44:28;;;;;;;1.00;1.00;;;4.80;99.90;;;;;;5032876;28;20295;-64
2022/01/20 01:46:57;;;;;;;1.10;1.10;;;4.60;99.90;;;;;;5035496;28;20307;-64
2022/01/20 01:49:25;;;;;;;0.90;0.90;;;4.60;99.90;;;;;;5033106;28;20561;-61
2022/01/20 01:51:53;;;;;;;1.07;1.07;;;4.60;99.90;;;;;;5033152;28;20379;-65
2022/01/20 01:54:20;;;;;;;1.00;1.00;;;4.50;99.90;;;;;;5032778;28;20219;-64
2022/01/20 01:56:49;;;;;;;0.93;0.93;;;4.50;99.90;;;;;;5033187;28;20311;-64
2022/01/20 01:59:16;;;;;;;1.00;1.00;;;4.50;99.90;;;;;;5034019;28;20793;-61
2022/01/20 02:01:43;;;;;;;0.90;0.90;;;4.50;99.90;;;;;;5033165;28;20259;-63
2022/01/20 02:04:15;;;;;;;1.00;1.00;;;4.50;99.90;;;;;;5032843;28;20691;-63
2022/01/20 02:07:20;;;;;;;0.90;0.90;;;4.50;99.90;;;;;;5022708;28;20564;-63
2022/01/20 02:18:24;;;;;;;0.87;0.87;;;4.30;99.90;;;;;;5012682;28;20224;-62
2022/01/20 02:20:52;;;;;;;0.90;0.90;;;4.40;99.90;;;;;;5012891;28;20225;-63
2022/01/20 02:23:19;;;;;;;0.70;0.70;;;4.40;99.90;;;;;;5012326;28;20205;-61
2022/01/20 02:25:46;;;;;;;0.87;0.87;;;4.40;99.90;;;;;;5012514;28;20311;-64
2022/01/20 02:28:13;;;;;;;0.90;0.90;;;4.40;99.90;;;;;;5013308;28;20205;-63
2022/01/20 02:30:43;;;;;;;1.00;1.00;;;4.40;99.90;;;;;;5014523;28;20243;-63
2022/01/20 02:33:12;;;;;;;1.00;1.00;;;4.40;99.90;;;;;;5012173;28;20668;-63
2022/01/20 02:35:40;;;;;;;1.00;1.00;;;4.20;99.90;;;;;;5012107;28;20967;-63
2022/01/20 02:38:13;;;;;;;1.00;1.00;;;4.20;99.90;;;;;;5011960;28;20609;-62
2022/01/20 02:46:11;;;;;;;1.00;1.00;;;4.30;99.90;;;;;;5011807;28;20204;-64
2022/01/20 02:48:38;;;;;;;1.00;1.00;;;4.30;99.90;;;;;;5023677;28;20204;-63
2022/01/20 02:51:05;;;;;;;0.90;0.90;;;4.40;99.90;;;;;;5031574;28;20224;-63
2022/01/20 02:53:33;;;;;;;0.90;0.90;;;4.40;99.90;;;;;;5031141;28;20304;-62
2022/01/20 02:56:00;;;;;;;0.80;0.80;;;4.40;99.90;;;;;;5031905;28;20215;-63
2022/01/20 02:58:27;;;;;;;0.90;0.90;;;4.50;99.90;;;;;;5031745;28;20564;-62
2022/01/20 03:00:54;;;;;;;0.90;0.90;;;4.40;99.90;;;;;;5031393;28;20692;-63
2022/01/20 03:03:21;;;;;;;0.90;0.90;;;4.40;99.90;;;;;;5031559;28;20299;-62
2022/01/20 03:05:48;;;;;;;0.80;0.80;;;4.40;99.90;;;;;;5034692;28;20287;-61
2022/01/20 03:08:15;;;;;;;0.90;0.90;;;4.50;99.90;;;;;;5033096;28;20222;-62
2022/01/20 03:10:43;;;;;;;0.83;0.83;;;4.50;99.90;;;;;;5031458;28;20689;-62
2022/01/20 03:13:10;;;;;;;0.90;0.90;;;4.50;99.90;;;;;;5031445;28;20211;-61
2022/01/20 03:15:37;;;;;;;0.90;0.90;;;4.50;99.90;;;;;;5031297;28;20208;-63
2022/01/20 03:18:05;;;;;;;1.00;1.00;;;4.50;99.90;;;;;;5031382;28;20264;-62
2022/01/20 03:20:33;;;;;;;1.00;1.00;;;4.50;99.90;;;;;;5031462;28;20316;-62
2022/01/20 03:23:00;;;;;;;0.80;0.80;;;4.40;99.90;;;;;;5031085;28;20201;-63
2022/01/20 03:25:27;;;;;;;0.80;0.80;;;4.50;99.90;;;;;;5032199;28;20200;-62
2022/01/20 03:27:56;;;;;;;0.90;0.90;;;4.50;99.90;;;;;;5032394;28;20323;-62
2022/01/20 03:30:24;;;;;;;1.00;1.00;;;4.50;99.90;;;;;;5031481;28;20235;-63
2022/01/20 03:32:51;;;;;;;0.87;0.87;;;4.50;99.90;;;;;;5031685;28;20208;-62
2022/01/20 03:35:18;;;;;;;0.80;0.80;;;4.50;99.90;;;;;;5031738;28;20232;-64
2022/01/20 03:37:45;;;;;;;0.90;0.90;;;4.50;99.90;;;;;;5031929;28;20263;-61
2022/01/20 03:40:13;;;;;;;0.80;0.80;;;4.50;99.90;;;;;;5034932;28;20310;-62
2022/01/20 03:42:39;;;;;;;0.80;0.80;;;4.50;99.90;;;;;;5035586;28;20236;-63
2022/01/20 03:45:09;;;;;;;0.67;0.67;;;4.50;99.90;;;;;;5035244;28;20232;-63
2022/01/20 03:47:36;;;;;;;0.90;0.90;;;4.50;99.90;;;;;;5035331;28;20288;-62
2022/01/20 03:50:10;;;;;;;0.80;0.80;;;4.50;99.90;;;;;;5035342;28;20251;-63
2022/01/20 03:52:37;;;;;;;0.80;0.80;;;4.50;99.90;;;;;;5034944;28;20196;-64
2022/01/20 03:55:04;;;;;;;1.00;1.00;;;4.50;99.90;;;;;;5035365;28;20209;-63
2022/01/20 03:57:31;;;;;;;0.80;0.80;;;4.40;99.90;;;;;;5034928;28;20228;-62
2022/01/20 03:59:58;;;;;;;0.90;0.90;;;4.40;99.90;;;;;;5034951;28;20204;-64
2022/01/20 04:02:26;;;;;;;0.80;0.80;;;4.40;99.90;;;;;;5034686;28;20295;-62
2022/01/20 04:04:53;;;;;;;0.80;0.80;;;4.40;99.90;;;;;;5034324;28;20245;-62
2022/01/20 04:07:20;;;;;;;0.77;0.77;;;4.40;99.90;;;;;;5035064;28;20236;-63
2022/01/20 04:09:47;;;;;;;0.70;0.70;;;4.40;99.90;;;;;;5037270;28;20236;-64
2022/01/20 04:12:14;;;;;;;0.80;0.80;;;4.40;99.90;;;;;;5035720;28;20312;-63
2022/01/20 04:14:46;;;;;;;0.80;0.80;;;4.40;99.90;;;;;;5035977;28;20243;-63
2022/01/20 04:17:18;;;;;;;0.70;0.70;;;4.40;99.90;;;;;;5037531;28;20212;-64
2022/01/20 04:19:46;;;;;;;0.77;0.77;;;4.40;99.90;;;;;;5037382;28;20577;-63
2022/01/20 04:22:14;;;;;;;0.80;0.80;;;4.40;99.90;;;;;;5036912;28;20311;-63
2022/01/20 04:24:40;;;;;;;0.80;0.80;;;4.40;99.90;;;;;;5037404;28;20215;-63
2022/01/20 04:27:07;;;;;;;0.73;0.73;;;4.50;99.90;;;;;;5041469;28;20223;-63
2022/01/20 04:29:34;;;;;;;0.80;0.80;;;4.40;99.90;;;;;;5044530;28;20295;-62
2022/01/20 04:32:01;;;;;;;0.53;0.53;;;4.50;99.90;;;;;;5045897;28;20259;-63
2022/01/20 04:34:28;;;;;;;0.80;0.80;;;4.50;99.90;;;;;;5046434;28;20296;-64
2022/01/20 04:36:57;;;;;;;0.73;0.73;;;4.50;99.90;;;;;;5037337;28;20239;-64
2022/01/20 04:39:31;;;;;;;0.70;0.70;;;4.60;99.90;;;;;;5034597;28;20735;-63
2022/01/20 04:41:57;;;;;;;0.67;0.67;;;4.50;99.90;;;;;;5034045;28;20243;-64
2022/01/20 04:44:38;;;;;;;0.70;0.70;;;4.60;99.90;;;;;;5034893;28;20209;-62
2022/01/20 04:47:15;;;;;;;0.60;0.60;;;4.60;99.90;;;;;;5035995;28;20254;-63
2022/01/20 04:57:57;;;;;;;0.80;0.80;;;4.60;99.90;;;;;;5034084;28;20231;-60
2022/01/20 05:00:24;;;;;;;0.70;0.70;;;4.70;99.90;;;;;;5034147;28;20290;-63
2022/01/20 05:02:51;;;;;;;1.00;1.00;;;4.70;99.90;;;;;;5033907;28;20231;-61
2022/01/20 05:05:18;;;;;;;0.90;0.90;;;4.80;99.90;;;;;;5035444;28;20291;-64
2022/01/20 05:07:47;;;;;;;0.80;0.80;;;4.80;99.90;;;;;;5033895;28;20207;-61
2022/01/20 05:10:14;;;;;;;0.80;0.80;;;4.70;99.90;;;;;;5037312;28;20275;-61
2022/01/20 05:13:03;;;;;;;0.90;0.90;;;4.80;99.90;;;;;;5036907;28;20240;-62
2022/01/20 05:15:32;;;;;;;0.67;0.67;;;4.70;99.90;;;;;;5036583;28;20223;-62
2022/01/20 05:17:59;;;;;;;0.80;0.80;;;4.80;99.90;;;;;;5036638;28;20224;-63
2022/01/20 05:20:26;;;;;;;0.87;0.87;;;4.70;99.90;;;;;;5036546;28;20288;-63
2022/01/20 05:22:54;;;;;;;0.87;0.87;;;4.80;99.90;;;;;;5036281;28;20262;-63
2022/01/20 05:25:21;;;;;;;0.80;0.80;;;4.90;99.90;;;;;;5033604;28;20236;-62
2022/01/20 05:27:48;;;;;;;0.90;0.90;;;4.90;99.90;;;;;;5033653;28;20288;-62
2022/01/20 05:30:15;;;;;;;0.90;0.90;;;4.90;99.90;;;;;;5033406;28;20347;-63
2022/01/20 05:32:41;;;;;;;0.93;0.93;;;4.90;99.90;;;;;;5033124;28;20279;-61
2022/01/20 05:35:09;;;;;;;0.97;0.97;;;4.90;99.90;;;;;;5033047;28;20277;-64
2022/01/20 05:37:36;;;;;;;0.87;0.87;;;5.00;99.90;;;;;;5033244;28;20306;-62
2022/01/20 05:40:06;;;;;;;1.00;1.00;;;5.00;99.90;;;;;;5033081;28;20215;-62
2022/01/20 05:42:32;;;;;;;1.10;1.10;;;5.10;99.90;;;;;;5033152;28;20185;-62
2022/01/20 05:44:59;;;;;;;1.00;1.00;;;5.10;99.90;;;;;;5033037;28;20219;-63
2022/01/20 05:47:29;;;;;;;0.90;0.90;;;5.00;99.90;;;;;;5033290;28;20236;-61
2022/01/20 05:49:56;;;;;;;1.00;1.00;;;5.00;99.90;;;;;;5035600;28;20247;-61
2022/01/20 05:52:23;;;;;;;1.00;1.00;;;5.00;99.90;;;;;;5042304;28;20204;-64
2022/01/20 05:54:50;;;;;;;1.00;1.00;;;4.90;99.90;;;;;;5032833;28;20295;-64
2022/01/20 05:57:18;;;;;;;1.10;1.10;;;4.90;99.90;;;;;;5032785;28;20239;-61
2022/01/20 05:59:45;;;;;;;1.30;1.30;;;4.90;99.90;;;;;;5034701;28;20529;-63
2022/01/20 06:02:26;;;;;;;1.20;1.20;;;4.90;99.90;;;;;;5032124;28;20320;-63
2022/01/20 06:04:53;;;;;;;1.10;1.10;;;5.00;99.90;;;;;;5032799;28;20211;-63
2022/01/20 06:07:20;;;;;;;1.17;1.17;;;5.10;99.90;;;;;;5034585;28;20243;-62
2022/01/20 06:09:48;;;;;;;1.17;1.17;;;5.10;99.90;;;;;;5034203;28;20259;-61
2022/01/20 06:12:15;;;;;;;1.00;1.00;;;5.10;99.90;;;;;;5036785;28;20282;-65
2022/01/20 06:14:43;;;;;;;1.13;1.13;;;5.00;99.90;;;;;;5040121;28;20209;-62
2022/01/20 06:17:10;;;;;;;1.00;1.00;;;5.00;99.90;;;;;;5036745;28;20236;-63
2022/01/20 06:19:36;;;;;;;1.10;1.10;;;5.10;99.90;;;;;;5035452;28;20504;-64
2022/01/20 06:22:04;;;;;;;1.00;1.00;;;5.00;99.90;;;;;;5028420;28;20253;-62
2022/01/20 06:24:31;;;;;;;1.10;1.10;;;5.10;99.90;;;;;;5028004;28;20275;-63
2022/01/20 06:26:58;;;;;;;1.20;1.20;;;5.20;99.90;;;;;;4996389;28;20209;-61
2022/01/20 06:29:25;;;;;;;1.43;1.43;;;5.20;99.90;;;;;;5002404;28;20229;-61
2022/01/20 06:31:53;;;;;;;1.20;1.20;;;5.30;99.90;;;;;;5003832;28;20225;-61
2022/01/20 06:34:20;;;;;;;1.20;1.20;;;5.10;99.90;;;;;;5011748;28;20205;-62
2022/01/20 06:36:47;;;;;;;1.23;1.23;;;5.00;99.90;;;;;;5010487;28;20293;-63
2022/01/20 06:39:14;;;;;;;1.10;1.10;;;4.90;99.90;;;;;;4996613;28;20230;-64
2022/01/20 06:41:41;;;;;;;1.10;1.10;;;4.90;99.90;;;;;;5000167;28;20293;-62
2022/01/20 06:44:08;;;;;;;1.10;1.10;;;4.90;99.90;;;;;;5025827;28;20228;-62
2022/01/20 06:46:35;;;;;;;1.20;1.20;;;5.00;99.90;;;;;;5033479;28;20204;-62
2022/01/20 06:49:04;;;;;;;1.20;1.20;;;4.90;99.90;;;;;;5032792;28;20209;-63
2022/01/20 06:51:31;;;;;;;1.10;1.10;;;4.90;99.90;;;;;;5031898;28;20232;-65
2022/01/20 06:53:59;;;;;;;1.30;1.30;;;5.00;99.90;;;;;;5014996;28;20334;-61
2022/01/20 06:56:26;;;;;;;1.20;1.20;;;5.00;99.90;;;;;;5017852;28;20256;-60
2022/01/20 06:58:53;;;;;;;1.10;1.10;;;5.00;99.90;;;;;;5012340;28;20253;-62
2022/01/20 07:01:20;;;;;;;1.20;1.20;;;5.00;99.90;;;;;;5027592;28;20706;-64
2022/01/20 07:03:47;;;;;;;1.00;1.00;;;5.00;99.90;;;;;;5031561;28;20204;-62
2022/01/20 07:06:15;;;;;;;1.13;1.13;;;5.00;99.90;;;;;;5031877;28;20601;-61
2022/01/20 07:08:42;;;;;;;1.20;1.20;;;5.00;99.90;;;;;;5031884;28;20686;-62
2022/01/20 07:11:09;;;;;;;1.27;1.27;;;5.00;99.90;;;;;;5032060;28;20307;-63
2022/01/20 07:13:36;;;;;;;1.20;1.20;;;5.00;99.90;;;;;;5031412;28;20295;-63
2022/01/20 07:16:03;;;;;;;0.97;0.93;;;5.10;99.90;;;;;;5031685;28;20295;-62
2022/01/20 07:18:31;;;;;;;1.20;1.20;;;5.10;99.90;;;;;;5031676;28;20308;-62
2022/01/20 07:20:57;;;;;;;1.27;1.27;;;5.20;99.90;;;;;;5031748;28;20248;-64
2022/01/20 07:23:26;;;;;;;1.27;1.27;;;5.20;99.90;;;;;;5031550;28;20204;-63
2022/01/20 07:25:53;;;;;;;1.00;1.00;;;5.10;99.90;;;;;;5031967;28;20208;-61
2022/01/20 07:28:19;;;;;;;1.00;1.00;;;5.10;99.90;;;;;;5031886;28;20287;-62
2022/01/20 07:30:46;;;;;;;1.23;1.23;;;5.20;99.90;;;;;;5031847;28;20587;-63
2022/01/20 07:33:13;;;;;;;1.20;1.20;;;5.20;99.90;;;;;;5031961;28;20231;-63
2022/01/20 07:35:40;;;;;;;1.10;1.10;;;5.30;99.90;;;;;;5031222;28;20204;-65
2022/01/20 07:38:08;;;;;;;1.40;1.40;;;5.20;99.90;;;;;;5031761;28;20311;-60
2022/01/20 07:40:36;;;;;;;1.00;1.00;;;5.30;99.90;;;;;;5031788;28;20711;-61
2022/01/20 07:43:04;;;;;;;1.10;1.10;;;5.40;99.90;;;;;;5031855;28;20588;-62
2022/01/20 07:45:31;;;;;;;1.10;1.10;;;5.40;99.90;;;;;;5031681;28;20563;-64
2022/01/20 07:47:58;;;;;;;1.10;1.10;;;5.50;99.90;;;;;;5031529;28;20211;-63
2022/01/20 07:50:25;;;;;;;0.93;0.93;;;5.50;99.90;;;;;;5032000;28;20270;-64
2022/01/20 07:52:52;;;;;;;1.10;1.10;;;5.40;99.90;;;;;;5031928;28;20295;-62
2022/01/20 07:55:19;;;;;;;1.00;1.00;;;5.40;99.90;;;;;;5031619;28;20209;-64
2022/01/20 07:57:47;;;;;;;1.00;1.00;;;5.40;99.90;;;;;;5036248;28;20240;-64
2022/01/20 08:00:15;;;;;;;1.20;1.20;;;5.40;99.90;;;;;;5035157;28;20259;-61
2022/01/20 08:02:42;;;;;;;0.90;0.90;;;5.40;99.90;;;;;;5014089;28;20207;-63
2022/01/20 08:05:09;;;;;;;1.00;1.00;;;5.40;99.90;;;;;;5019597;28;20296;-65
2022/01/20 08:07:36;;;;;;;1.10;1.10;;;5.40;99.90;;;;;;5012970;28;20209;-62
2022/01/20 08:10:03;;;;;;;1.00;1.00;;;5.60;99.90;;;;;;5019888;28;20208;-63
2022/01/20 08:12:30;;;;;;;1.30;1.30;;;5.50;99.90;;;;;;5024683;28;20289;-62
2022/01/20 08:14:59;;;;;;;1.10;1.10;;;5.60;99.90;;;;;;5027944;28;20202;-62
2022/01/20 08:17:27;;;;;;;1.00;1.00;;;5.80;99.90;;;;;;5034066;28;20209;-61
2022/01/20 08:19:53;;;;;;;1.10;1.10;;;5.70;99.90;;;;;;5028802;28;20309;-62
2022/01/20 08:22:20;;;;;;;0.90;0.90;;;5.70;99.90;;;;;;5033818;28;20296;-61
2022/01/20 08:24:52;;;;;;;1.00;1.00;;;5.70;99.90;;;;;;5027731;28;20206;-63
2022/01/20 08:27:19;;;;;;;0.90;0.90;;;5.80;99.90;;;;;;5031481;28;20294;-60
2022/01/20 08:29:47;;;;;;;1.03;1.03;;;5.70;99.90;;;;;;5022642;28;20205;-62
2022/01/20 08:32:15;;;;;;;1.20;1.10;;;5.70;99.90;;;;;;5013586;28;20328;-62
2022/01/20 08:34:42;;;;;;;1.07;1.07;;;5.90;99.90;;;;;;5014429;28;20293;-62
2022/01/20 08:37:09;;;;;;;1.00;1.00;;;5.80;99.90;;;;;;5014239;28;20672;-62
2022/01/20 08:39:42;;;;;;;1.03;1.03;;;5.90;99.90;;;;;;5015177;28;20717;-62
2022/01/20 08:42:10;;;;;;;0.90;0.90;;;5.90;99.90;;;;;;5008508;28;20248;-62
2022/01/20 08:44:37;;;;;;;1.17;1.17;;;6.00;99.90;;;;;;5011098;28;20564;-62
2022/01/20 08:47:09;;;;;;;0.87;0.87;;;6.00;99.90;;;;;;5021201;28;20212;-62
2022/01/20 08:49:37;;;;;;;1.00;1.00;;;6.00;99.90;;;;;;5014352;28;20637;-61
2022/01/20 08:52:05;;;;;;;1.00;1.00;;;6.00;99.90;;;;;;5014528;28;20316;-63
2022/01/20 08:54:32;;;;;;;1.00;1.00;;;6.10;99.90;;;;;;5014166;28;20320;-63
2022/01/20 08:56:59;;;;;;;1.37;1.27;;;6.10;99.90;;;;;;5020673;28;20731;-62
2022/01/20 08:59:27;;;;;;;1.10;1.10;;;6.00;99.90;;;;;;5024892;28;20232;-62
2022/01/20 09:01:54;;;;;;;1.00;1.00;;;6.00;99.90;;;;;;5021445;28;20239;-62
2022/01/20 09:04:21;;;;;;;1.13;1.13;;;6.00;99.90;;;;;;5023891;28;20252;-63
2022/01/20 09:06:49;;;;;;;1.10;1.10;;;6.00;99.90;;;;;;5032674;28;20298;-63
2022/01/20 09:09:19;;;;;;;1.10;1.10;;;6.00;99.90;;;;;;5033536;28;20295;-62
2022/01/20 09:11:51;;;;;;;1.10;1.10;;;5.90;99.90;;;;;;5033048;28;20225;-63
2022/01/20 09:17:03;;;;;;;1.10;1.10;;;5.90;99.90;;;;;;5033990;28;20226;-62
2022/01/20 09:19:30;;;;;;;1.20;1.20;;;5.80;99.90;;;;;;5033698;28;20262;-62
2022/01/20 09:21:58;;;;;;;1.20;1.20;;;5.80;99.90;;;;;;5033944;28;20744;-62
2022/01/20 09:24:28;;;;;;;1.27;1.20;;;5.70;99.90;;;;;;5034474;28;20244;-62
2022/01/20 09:26:55;;;;;;;1.03;1.03;;;5.70;99.90;;;;;;5027908;28;20204;-63
2022/01/20 09:29:21;;;;;;;1.20;1.10;;;5.70;99.90;;;;;;5012428;28;20614;-63
2022/01/20 09:31:50;;;;;;;0.97;0.97;;;5.70;99.90;;;;;;5024603;28;20231;-63
2022/01/20 09:34:17;;;;;;;1.03;1.03;;;5.80;99.90;;;;;;5032516;28;20201;-62
2022/01/20 09:36:45;;;;;;;1.00;1.00;;;5.80;99.90;;;;;;5032831;28;20693;-62
2022/01/20 09:39:13;;;;;;;1.40;1.30;;;5.70;99.90;;;;;;5034550;28;20224;-62
2022/01/20 09:41:40;;;;;;;1.40;1.40;;;5.70;99.90;;;;;;5033945;28;20857;-63
2022/01/20 09:44:07;;;;;;;1.13;1.13;;;5.70;99.90;;;;;;5033368;28;20216;-62
2022/01/20 09:46:35;;;;;;;1.10;1.10;;;5.80;99.90;;;;;;5032750;28;20303;-62
2022/01/20 09:49:02;;;;;;;1.57;1.47;;;5.80;99.90;;;;;;5033345;28;20196;-61
2022/01/20 09:51:28;;;;;;;1.30;1.30;;;5.90;99.90;;;;;;5032798;28;20312;-62
2022/01/20 09:53:55;;;;;;;1.30;1.30;;;5.90;99.90;;;;;;5032815;28;20215;-62
2022/01/20 09:56:24;;;;;;;1.40;1.40;;;6.00;99.90;;;;;;5033281;28;20204;-63
2022/01/20 09:58:51;;;;;;;1.30;1.30;;;6.00;99.90;;;;;;5045676;28;20240;-63
2022/01/20 10:01:37;;;;;;;1.20;1.20;;;6.10;99.90;;;;;;5046686;28;20224;-63
2022/01/20 10:04:04;;;;;;;1.53;1.47;;;6.20;99.90;;;;;;5043905;28;20279;-63
2022/01/20 10:06:31;;;;;;;1.13;1.10;;;6.10;99.90;;;;;;5040574;28;20730;-62
2022/01/20 10:08:59;;;;;;;1.40;1.30;;;6.00;99.90;;;;;;5033408;28;20234;-63
2022/01/20 10:11:29;;;;;;;1.20;1.20;;;6.10;99.90;;;;;;5037972;28;20247;-62
2022/01/20 10:13:59;;;;;;;1.57;1.47;;;6.20;99.90;;;;;;5048763;28;20267;-63
2022/01/20 10:16:26;;;;;;;1.50;1.40;;;6.30;99.90;;;;;;5032863;28;20254;-62
2022/01/20 10:18:55;;;;;;;1.20;1.20;;;6.20;99.90;;;;;;5032524;28;20231;-64
2022/01/20 10:21:30;;;;;;;1.30;1.30;;;6.20;99.90;;;;;;5032119;28;20224;-64
2022/01/20 10:24:05;;;;;;;1.30;1.20;;;6.30;99.90;;;;;;5032153;28;20567;-64
2022/01/20 10:26:34;;;;;;;1.50;1.40;;;6.40;99.90;;;;;;5033177;28;20271;-62
2022/01/20 10:29:04;;;;;;;1.90;1.80;;;6.30;99.90;;;;;;5032696;28;20300;-63
2022/01/20 10:31:34;;;;;;;1.87;1.77;;;6.30;99.90;;;;;;5032437;28;20228;-63
2022/01/20 10:34:01;;;;;;;1.70;1.60;;;6.30;99.90;;;;;;5034370;28;20200;-63
2022/01/20 10:36:28;;;;;;;2.60;2.40;;;6.30;99.90;;;;;;5032957;28;20258;-63
2022/01/20 10:38:58;;;;;;;3.73;2.73;;;6.30;99.90;;;;;;5032783;28;20236;-61
2022/01/20 10:41:34;;;;;;;2.93;1.90;;;6.20;99.90;;;;;;5016306;28;20309;-61
2022/01/20 10:44:08;;;;;;;1.13;1.13;;;6.30;99.90;;;;;;5001633;28;20284;-63
2022/01/20 10:46:47;;;;;;;1.20;1.20;;;6.30;99.90;;;;;;5007823;28;20212;-63
2022/01/20 10:49:15;;;;;;;1.43;1.43;;;6.20;99.90;;;;;;5015809;28;20264;-62
2022/01/20 10:51:43;;;;;;;1.47;1.43;;;6.20;99.90;;;;;;5011172;28;20275;-63
2022/01/20 10:54:13;;;;;;;1.23;1.23;;;6.10;99.90;;;;;;5009355;28;20205;-62
2022/01/20 10:56:53;;;;;;;1.60;1.50;;;6.10;99.90;;;;;;5010794;28;20209;-63
2022/01/20 10:59:21;;;;;;;1.70;1.60;;;6.00;99.90;;;;;;5009005;28;20303;-62
2022/01/20 11:02:03;;;;;;;1.40;1.30;;;6.00;99.90;;;;;;5010994;28;20321;-61
2022/01/20 11:04:31;;;;;;;1.30;1.30;;;5.90;99.90;;;;;;5010979;28;20293;-61
2022/01/20 11:07:03;;;;;;;1.50;1.40;;;6.00;99.90;;;;;;5011381;28;20201;-61
2022/01/20 11:09:31;;;;;;;1.53;1.43;;;6.00;99.90;;;;;;5006221;28;20190;-63
2022/01/20 11:12:01;;;;;;;1.50;1.40;;;6.10;99.90;;;;;;5003835;28;20244;-62
2022/01/20 11:14:29;;;;;;;1.47;1.40;;;6.10;99.90;;;;;;5000494;28;20317;-63
2022/01/20 11:16:58;;;;;;;1.40;1.30;;;6.00;99.90;;;;;;5001624;28;20651;-63
2022/01/20 11:19:26;;;;;;;1.50;1.40;;;6.00;99.90;;;;;;5002346;28;20276;-61
2022/01/20 11:22:05;;;;;;;1.53;1.43;;;6.00;99.90;;;;;;4999374;28;20220;-62
2022/01/20 11:24:32;;;;;;;1.70;1.60;;;6.00;99.90;;;;;;5000634;28;20289;-62
2022/01/20 11:27:04;;;;;;;1.43;1.33;;;6.00;99.90;;;;;;5008955;28;20201;-62
2022/01/20 11:29:46;;;;;;;1.80;1.70;;;6.00;99.90;;;;;;5013260;28;20298;-63
2022/01/20 11:32:20;;;;;;;1.27;1.23;;;6.00;99.90;;;;;;5007488;28;20758;-62
2022/01/20 11:35:04;;;;;;;1.53;1.43;;;5.90;99.90;;;;;;5010924;28;20250;-62
2022/01/20 11:37:34;;;;;;;1.60;1.50;;;5.90;99.90;;;;;;5010129;28;20284;-61
2022/01/20 11:40:11;;;;;;;1.30;1.30;;;5.90;99.90;;;;;;5010365;28;20220;-62
2022/01/20 11:42:40;;;;;;;1.80;1.70;;;5.90;99.90;;;;;;5013746;28;20572;-62
2022/01/20 11:45:22;;;;;;;1.23;1.23;;;5.80;99.90;;;;;;5012351;28;20588;-62
2022/01/20 11:47:49;;;;;;;1.47;1.37;;;5.90;99.90;;;;;;5022756;28;20189;-62
2022/01/20 11:50:17;;;;;;;1.40;1.30;;;6.00;99.90;;;;;;5031280;28;20689;-62
2022/01/20 11:52:44;;;;;;;1.60;1.50;;;6.10;99.90;;;;;;5031280;28;20297;-62
2022/01/20 11:55:11;;;;;;;1.40;1.40;;;6.10;99.90;;;;;;5015665;28;20714;-61
2022/01/20 11:57:40;;;;;;;1.30;1.30;;;6.10;99.90;;;;;;5009857;28;20202;-61
2022/01/20 12:00:22;;;;;;;1.60;1.50;;;6.10;99.90;;;;;;5009967;28;20253;-61
2022/01/20 12:02:50;;;;;;;1.60;1.50;;;6.10;99.90;;;;;;5009471;28;20369;-61
2022/01/20 12:05:19;;;;;;;1.50;1.40;;;6.10;99.90;;;;;;5013017;28;20229;-61
2022/01/20 12:07:46;;;;;;;1.80;1.60;;;6.00;99.90;;;;;;5013598;28;20204;-62
2022/01/20 12:10:15;;;;;;;1.47;1.37;;;5.90;99.90;;;;;;5015248;28;20206;-61
2022/01/20 12:12:44;;;;;;;1.60;1.50;;;5.90;99.90;;;;;;5013150;28;20207;-62
2022/01/20 12:15:14;;;;;;;1.60;1.50;;;5.90;99.90;;;;;;5016558;28;20198;-62
2022/01/20 12:17:48;;;;;;;1.60;1.50;;;6.00;99.90;;;;;;5018100;28;20599;-63
2022/01/20 12:20:15;;;;;;;1.80;1.70;;;6.00;99.90;;;;;;5017900;28;20628;-63
2022/01/20 12:22:43;;;;;;;2.10;1.90;;;5.90;99.90;;;;;;5018716;28;20207;-61
2022/01/20 12:25:16;;;;;;;1.90;1.80;;;5.90;99.90;;;;;;5017271;28;20288;-64
2022/01/20 12:27:45;;;;;;;1.73;1.63;;;5.80;99.90;;;;;;5015116;28;20216;-62
2022/01/20 12:30:21;;;;;;;1.83;1.73;;;5.80;99.90;;;;;;5015393;28;20210;-62
2022/01/20 12:32:59;;;;;;;1.97;1.83;;;5.70;99.90;;;;;;5016508;28;20291;-63
2022/01/20 12:35:26;;;;;;;1.60;1.50;;;5.70;99.90;;;;;;5015056;28;20339;-61
2022/01/20 12:37:53;;;;;;;1.70;1.60;;;5.70;99.90;;;;;;5015797;28;20213;-63
2022/01/20 12:40:22;;;;;;;2.23;2.10;;;5.70;99.90;;;;;;5014124;28;20247;-62
2022/01/20 12:42:51;;;;;;;1.50;1.43;;;5.70;99.90;;;;;;5016401;28;20284;-62
2022/01/20 12:48:13;;;;;;;2.10;1.90;;;5.70;99.90;;;;;;5020485;28;20216;-62
2022/01/20 12:50:50;;;;;;;2.33;2.17;;;5.60;99.90;;;;;;5034474;28;20221;-63
2022/01/20 12:53:18;;;;;;;2.33;1.90;;;5.70;99.90;;;;;;5020434;28;20208;-63
2022/01/20 12:55:51;;;;;;;2.00;1.90;;;5.60;99.90;;;;;;5011954;28;20205;-63
2022/01/20 12:58:20;;;;;;;2.27;2.00;;;5.60;99.90;;;;;;5011176;28;20205;-61
2022/01/20 13:00:59;;;;;;;1.80;1.70;;;5.70;99.90;;;;;;5012550;28;20600;-62
2022/01/20 13:03:37;;;;;;;2.30;2.10;;;5.70;99.90;;;;;;5013383;28;20300;-61
2022/01/20 13:06:05;;;;;;;2.07;1.87;;;5.60;99.90;;;;;;5010531;28;20203;-61
2022/01/20 13:08:36;;;;;;;1.90;1.80;;;5.60;99.90;;;;;;5015224;28;20202;-61
2022/01/20 13:11:13;;;;;;;2.00;1.70;;;5.50;99.90;;;;;;5010525;28;20253;-62
2022/01/20 13:13:52;;;;;;;2.60;1.73;;;5.50;99.90;;;;;;5007724;28;20237;-62
2022/01/20 13:16:19;;;;;;;2.00;1.90;;;5.50;99.90;;;;;;5009781;28;20205;-61
2022/01/20 13:18:53;;;;;;;2.00;1.90;;;5.50;99.90;;;;;;5008241;28;20237;-62
2022/01/20 13:21:23;;;;;;;2.13;1.93;;;5.60;99.90;;;;;;5012095;28;20240;-61
2022/01/20 13:23:55;;;;;;;1.87;1.77;;;5.60;99.90;;;;;;5013571;28;20263;-62
2022/01/20 13:26:23;;;;;;;1.83;1.73;;;5.60;99.90;;;;;;5011868;28;20204;-62
2022/01/20 13:29:00;;;;;;;1.93;1.83;;;5.60;99.90;;;;;;5009919;28;20212;-62
2022/01/20 13:31:26;;;;;;;1.63;1.53;;;5.60;99.90;;;;;;5011817;28;20236;-62
2022/01/20 13:33:53;;;;;;;1.93;1.70;;;5.70;99.90;;;;;;5012174;28;20292;-62
2022/01/20 13:36:22;;;;;;;1.80;1.70;;;5.70;99.90;;;;;;5012806;28;20698;-63
2022/01/20 13:38:57;;;;;;;2.63;2.10;;;5.70;99.90;;;;;;5012825;28;20205;-62
2022/01/20 13:41:29;;;;;;;2.10;1.80;;;5.70;99.90;;;;;;5010367;28;20225;-62
2022/01/20 13:46:45;;;;;;;2.00;1.60;;;5.70;99.90;;;;;;5009047;28;20204;-62
2022/01/20 13:49:13;;;;;;;1.73;1.63;;;5.80;99.90;;;;;;5013229;28;20238;-62
2022/01/20 13:51:40;;;;;;;1.80;1.70;;;5.70;99.90;;;;;;5005896;28;20222;-61
2022/01/20 13:54:08;;;;;;;1.90;1.80;;;5.70;99.90;;;;;;5000174;28;20209;-62
2022/01/20 13:56:34;;;;;;;1.90;1.80;;;5.70;99.90;;;;;;5001933;28;20205;-62
2022/01/20 13:59:06;;;;;;;1.53;1.43;;;5.70;99.90;;;;;;5006972;28;20201;-61
2022/01/20 14:01:33;;;;;;;1.60;1.50;;;5.70;99.90;;;;;;4997143;28;20320;-61
2022/01/20 14:04:02;;;;;;;2.07;1.87;;;5.80;99.90;;;;;;4996974;28;20294;-63